sensor_id;sensor_type;location;lat;lon;timestamp;P1;durP1;ratioP1;P2;durP2;ratioP2
32780;SDS011;19136;47.032;15.502;2023-02-04T00:01:20;6.28;;;3.30;;
32780;SDS011;19136;47.032;15.502;2023-02-04T00:03:45;7.18;;;3.50;;
32780;SDS011;19136;47.032;15.502;2023-02-04T00:06:11;6.47;;;2.90;;
32780;SDS011;19136;47.032;15.502;2023-02-04T00:08:36;5.75;;;2.78;;
32780;SDS011;19136;47.032;15.502;2023-02-04T00:11:02;4.97;;;2.70;;
32780;SDS011;19136;47.032;15.502;2023-02-04T00:13:28;5.57;;;2.70;;
32780;SDS011;19136;47.032;15.502;2023-02-04T00:15:54;6.65;;;2.40;;
32780;SDS011;19136;47.032;15.502;2023-02-04T00:18:19;4.90;;;2.47;;
32780;SDS011;19136;47.032;15.502;2023-02-04T00:20:45;4.90;;;2.30;;
32780;SDS011;19136;47.032;15.502;2023-02-04T00:23:10;3.85;;;2.03;;
32780;SDS011;19136;47.032;15.502;2023-02-04T00:25:36;5.30;;;1.90;;
32780;SDS011;19136;47.032;15.502;2023-02-04T00:28:01;4.80;;;1.98;;
32780;SDS011;19136;47.032;15.502;2023-02-04T00:30:28;4.00;;;1.83;;
32780;SDS011;19136;47.032;15.502;2023-02-04T00:32:53;6.07;;;2.17;;
32780;SDS011;19136;47.032;15.502;2023-02-04T00:35:21;6.45;;;2.10;;
32780;SDS011;19136;47.032;15.502;2023-02-04T00:37:47;5.35;;;2.28;;
32780;SDS011;19136;47.032;15.502;2023-02-04T00:40:12;3.38;;;1.60;;
32780;SDS011;19136;47.032;15.502;2023-02-04T00:42:38;3.55;;;1.90;;
32780;SDS011;19136;47.032;15.502;2023-02-04T00:45:04;3.80;;;1.70;;
32780;SDS011;19136;47.032;15.502;2023-02-04T00:47:29;3.67;;;1.75;;
32780;SDS011;19136;47.032;15.502;2023-02-04T00:49:55;4.63;;;2.13;;
32780;SDS011;19136;47.032;15.502;2023-02-04T00:52:20;4.40;;;1.90;;
32780;SDS011;19136;47.032;15.502;2023-02-04T00:54:46;3.28;;;2.05;;
32780;SDS011;19136;47.032;15.502;2023-02-04T00:57:11;3.50;;;2.38;;
32780;SDS011;19136;47.032;15.502;2023-02-04T00:59:37;4.75;;;2.35;;
32780;SDS011;19136;47.032;15.502;2023-02-04T01:02:02;3.65;;;1.75;;
32780;SDS011;19136;47.032;15.502;2023-02-04T01:04:31;3.83;;;1.90;;
32780;SDS011;19136;47.032;15.502;2023-02-04T01:06:58;3.33;;;1.30;;
32780;SDS011;19136;47.032;15.502;2023-02-04T01:09:24;3.25;;;0.52;;
32780;SDS011;19136;47.032;15.502;2023-02-04T01:11:49;2.05;;;1.35;;
32780;SDS011;19136;47.032;15.502;2023-02-04T01:14:15;1.05;;;0.60;;
32780;SDS011;19136;47.032;15.502;2023-02-04T01:16:41;0.57;;;0.50;;
32780;SDS011;19136;47.032;15.502;2023-02-04T01:19:06;2.05;;;0.77;;
32780;SDS011;19136;47.032;15.502;2023-02-04T01:21:32;1.15;;;0.60;;
32780;SDS011;19136;47.032;15.502;2023-02-04T01:23:57;0.57;;;0.40;;
32780;SDS011;19136;47.032;15.502;2023-02-04T01:26:23;1.10;;;0.50;;
32780;SDS011;19136;47.032;15.502;2023-02-04T01:28:49;1.02;;;0.60;;
32780;SDS011;19136;47.032;15.502;2023-02-04T01:31:15;1.42;;;0.52;;
32780;SDS011;19136;47.032;15.502;2023-02-04T01:33:41;1.92;;;0.70;;
32780;SDS011;19136;47.032;15.502;2023-02-04T01:36:06;0.88;;;0.45;;
32780;SDS011;19136;47.032;15.502;2023-02-04T01:38:32;3.13;;;0.60;;
32780;SDS011;19136;47.032;15.502;2023-02-04T01:40:58;0.90;;;0.40;;
32780;SDS011;19136;47.032;15.502;2023-02-04T01:43:24;1.27;;;0.52;;
32780;SDS011;19136;47.032;15.502;2023-02-04T01:45:50;1.58;;;0.80;;
32780;SDS011;19136;47.032;15.502;2023-02-04T01:48:16;2.88;;;0.55;;
32780;SDS011;19136;47.032;15.502;2023-02-04T01:50:50;1.52;;;0.40;;
32780;SDS011;19136;47.032;15.502;2023-02-04T01:53:20;0.65;;;0.40;;
32780;SDS011;19136;47.032;15.502;2023-02-04T01:55:48;2.25;;;0.30;;
32780;SDS011;19136;47.032;15.502;2023-02-04T01:58:14;0.75;;;0.20;;
32780;SDS011;19136;47.032;15.502;2023-02-04T02:00:40;1.85;;;0.30;;
32780;SDS011;19136;47.032;15.502;2023-02-04T02:03:07;0.55;;;0.38;;
32780;SDS011;19136;47.032;15.502;2023-02-04T02:05:39;1.75;;;0.20;;
32780;SDS011;19136;47.032;15.502;2023-02-04T02:08:07;0.20;;;0.20;;
32780;SDS011;19136;47.032;15.502;2023-02-04T02:10:34;0.32;;;0.17;;
32780;SDS011;19136;47.032;15.502;2023-02-04T02:13:00;0.20;;;0.20;;
32780;SDS011;19136;47.032;15.502;2023-02-04T02:15:26;0.20;;;0.20;;
32780;SDS011;19136;47.032;15.502;2023-02-04T02:17:52;0.40;;;0.20;;
32780;SDS011;19136;47.032;15.502;2023-02-04T02:20:20;0.22;;;0.22;;
32780;SDS011;19136;47.032;15.502;2023-02-04T02:23:00;0.85;;;0.20;;
32780;SDS011;19136;47.032;15.502;2023-02-04T02:25:29;0.52;;;0.30;;
32780;SDS011;19136;47.032;15.502;2023-02-04T02:27:54;0.17;;;0.17;;
32780;SDS011;19136;47.032;15.502;2023-02-04T02:30:21;0.57;;;0.38;;
32780;SDS011;19136;47.032;15.502;2023-02-04T02:32:47;0.28;;;0.15;;
32780;SDS011;19136;47.032;15.502;2023-02-04T02:35:14;0.10;;;0.10;;
32780;SDS011;19136;47.032;15.502;2023-02-04T02:37:40;1.17;;;0.30;;
32780;SDS011;19136;47.032;15.502;2023-02-04T02:40:06;0.88;;;0.20;;
32780;SDS011;19136;47.032;15.502;2023-02-04T02:42:32;0.65;;;0.13;;
32780;SDS011;19136;47.032;15.502;2023-02-04T02:44:58;0.25;;;0.10;;
32780;SDS011;19136;47.032;15.502;2023-02-04T02:47:24;0.20;;;0.20;;
32780;SDS011;19136;47.032;15.502;2023-02-04T02:49:50;0.10;;;0.10;;
32780;SDS011;19136;47.032;15.502;2023-02-04T02:52:17;0.57;;;0.32;;
32780;SDS011;19136;47.032;15.502;2023-02-04T02:54:43;0.75;;;0.40;;
32780;SDS011;19136;47.032;15.502;2023-02-04T02:57:13;2.05;;;0.98;;
32780;SDS011;19136;47.032;15.502;2023-02-04T02:59:44;1.95;;;0.90;;
32780;SDS011;19136;47.032;15.502;2023-02-04T03:02:10;1.92;;;0.80;;
32780;SDS011;19136;47.032;15.502;2023-02-04T03:04:43;1.27;;;0.70;;
32780;SDS011;19136;47.032;15.502;2023-02-04T03:07:10;2.40;;;0.40;;
32780;SDS011;19136;47.032;15.502;2023-02-04T03:09:37;0.80;;;0.20;;
32780;SDS011;19136;47.032;15.502;2023-02-04T03:12:03;0.40;;;0.20;;
32780;SDS011;19136;47.032;15.502;2023-02-04T03:14:29;0.25;;;0.20;;
32780;SDS011;19136;47.032;15.502;2023-02-04T03:16:55;0.10;;;0.10;;
32780;SDS011;19136;47.032;15.502;2023-02-04T03:19:21;1.67;;;0.22;;
32780;SDS011;19136;47.032;15.502;2023-02-04T03:21:47;0.10;;;0.10;;
32780;SDS011;19136;47.032;15.502;2023-02-04T03:24:13;0.43;;;0.20;;
32780;SDS011;19136;47.032;15.502;2023-02-04T03:26:38;0.60;;;0.20;;
32780;SDS011;19136;47.032;15.502;2023-02-04T03:29:10;1.95;;;0.20;;
32780;SDS011;19136;47.032;15.502;2023-02-04T03:31:36;0.30;;;0.20;;
32780;SDS011;19136;47.032;15.502;2023-02-04T03:34:02;0.55;;;0.20;;
32780;SDS011;19136;47.032;15.502;2023-02-04T03:36:28;0.55;;;0.30;;
32780;SDS011;19136;47.032;15.502;2023-02-04T03:38:54;1.17;;;0.35;;
32780;SDS011;19136;47.032;15.502;2023-02-04T03:41:20;0.45;;;0.20;;
32780;SDS011;19136;47.032;15.502;2023-02-04T03:43:46;0.32;;;0.20;;
32780;SDS011;19136;47.032;15.502;2023-02-04T03:46:11;0.40;;;0.20;;
32780;SDS011;19136;47.032;15.502;2023-02-04T03:48:37;0.30;;;0.20;;
32780;SDS011;19136;47.032;15.502;2023-02-04T03:51:02;0.40;;;0.20;;
32780;SDS011;19136;47.032;15.502;2023-02-04T03:53:28;0.10;;;0.10;;
32780;SDS011;19136;47.032;15.502;2023-02-04T03:55:53;1.48;;;0.20;;
32780;SDS011;19136;47.032;15.502;2023-02-04T03:58:20;0.10;;;0.10;;
32780;SDS011;19136;47.032;15.502;2023-02-04T04:00:46;0.52;;;0.20;;
32780;SDS011;19136;47.032;15.502;2023-02-04T04:03:12;1.13;;;0.25;;
32780;SDS011;19136;47.032;15.502;2023-02-04T04:05:37;1.00;;;0.47;;
32780;SDS011;19136;47.032;15.502;2023-02-04T04:08:03;0.40;;;0.30;;
32780;SDS011;19136;47.032;15.502;2023-02-04T04:10:28;0.40;;;0.20;;
32780;SDS011;19136;47.032;15.502;2023-02-04T04:12:54;0.20;;;0.20;;
32780;SDS011;19136;47.032;15.502;2023-02-04T04:15:19;0.60;;;0.17;;
32780;SDS011;19136;47.032;15.502;2023-02-04T04:17:45;0.20;;;0.20;;
32780;SDS011;19136;47.032;15.502;2023-02-04T04:20:11;0.20;;;0.20;;
32780;SDS011;19136;47.032;15.502;2023-02-04T04:22:38;0.20;;;0.20;;
32780;SDS011;19136;47.032;15.502;2023-02-04T04:25:04;1.08;;;0.20;;
32780;SDS011;19136;47.032;15.502;2023-02-04T04:27:29;0.20;;;0.20;;
32780;SDS011;19136;47.032;15.502;2023-02-04T04:29:55;0.30;;;0.20;;
32780;SDS011;19136;47.032;15.502;2023-02-04T04:32:22;0.55;;;0.20;;
32780;SDS011;19136;47.032;15.502;2023-02-04T04:34:47;0.30;;;0.20;;
32780;SDS011;19136;47.032;15.502;2023-02-04T04:37:13;0.45;;;0.20;;
32780;SDS011;19136;47.032;15.502;2023-02-04T04:39:39;0.60;;;0.10;;
32780;SDS011;19136;47.032;15.502;2023-02-04T04:42:04;0.10;;;0.10;;
32780;SDS011;19136;47.032;15.502;2023-02-04T04:44:30;0.28;;;0.28;;
32780;SDS011;19136;47.032;15.502;2023-02-04T04:46:55;0.30;;;0.15;;
32780;SDS011;19136;47.032;15.502;2023-02-04T04:49:24;0.20;;;0.20;;
32780;SDS011;19136;47.032;15.502;2023-02-04T04:51:49;1.65;;;0.52;;
32780;SDS011;19136;47.032;15.502;2023-02-04T04:54:15;0.75;;;0.20;;
32780;SDS011;19136;47.032;15.502;2023-02-04T04:56:40;0.10;;;0.10;;
32780;SDS011;19136;47.032;15.502;2023-02-04T04:59:06;0.82;;;0.50;;
32780;SDS011;19136;47.032;15.502;2023-02-04T05:01:31;0.80;;;0.28;;
32780;SDS011;19136;47.032;15.502;2023-02-04T05:03:57;0.52;;;0.28;;
32780;SDS011;19136;47.032;15.502;2023-02-04T05:06:23;0.32;;;0.30;;
32780;SDS011;19136;47.032;15.502;2023-02-04T05:08:50;0.28;;;0.20;;
32780;SDS011;19136;47.032;15.502;2023-02-04T05:11:16;0.30;;;0.20;;
32780;SDS011;19136;47.032;15.502;2023-02-04T05:13:42;0.20;;;0.20;;
32780;SDS011;19136;47.032;15.502;2023-02-04T05:16:07;0.17;;;0.15;;
32780;SDS011;19136;47.032;15.502;2023-02-04T05:18:36;0.95;;;0.40;;
32780;SDS011;19136;47.032;15.502;2023-02-04T05:21:02;0.20;;;0.20;;
32780;SDS011;19136;47.032;15.502;2023-02-04T05:23:27;1.02;;;0.10;;
32780;SDS011;19136;47.032;15.502;2023-02-04T05:25:53;0.43;;;0.22;;
32780;SDS011;19136;47.032;15.502;2023-02-04T05:28:18;1.70;;;0.25;;
32780;SDS011;19136;47.032;15.502;2023-02-04T05:30:44;0.43;;;0.10;;
32780;SDS011;19136;47.032;15.502;2023-02-04T05:33:09;0.25;;;0.20;;
32780;SDS011;19136;47.032;15.502;2023-02-04T05:35:35;0.50;;;0.30;;
32780;SDS011;19136;47.032;15.502;2023-02-04T05:38:00;0.30;;;0.30;;
32780;SDS011;19136;47.032;15.502;2023-02-04T05:40:26;2.00;;;0.40;;
32780;SDS011;19136;47.032;15.502;2023-02-04T05:42:51;0.38;;;0.30;;
32780;SDS011;19136;47.032;15.502;2023-02-04T05:45:17;0.52;;;0.20;;
32780;SDS011;19136;47.032;15.502;2023-02-04T05:47:43;1.35;;;0.60;;
32780;SDS011;19136;47.032;15.502;2023-02-04T05:50:09;0.93;;;0.43;;
32780;SDS011;19136;47.032;15.502;2023-02-04T05:52:34;0.70;;;0.40;;
32780;SDS011;19136;47.032;15.502;2023-02-04T05:55:00;0.47;;;0.47;;
32780;SDS011;19136;47.032;15.502;2023-02-04T05:57:26;0.82;;;0.40;;
32780;SDS011;19136;47.032;15.502;2023-02-04T05:59:51;0.98;;;0.40;;
32780;SDS011;19136;47.032;15.502;2023-02-04T06:02:17;0.85;;;0.40;;
32780;SDS011;19136;47.032;15.502;2023-02-04T06:04:43;1.23;;;0.60;;
32780;SDS011;19136;47.032;15.502;2023-02-04T06:07:09;0.45;;;0.30;;
32780;SDS011;19136;47.032;15.502;2023-02-04T06:09:34;1.35;;;0.63;;
32780;SDS011;19136;47.032;15.502;2023-02-04T06:12:00;1.35;;;0.30;;
32780;SDS011;19136;47.032;15.502;2023-02-04T06:14:28;1.20;;;0.32;;
32780;SDS011;19136;47.032;15.502;2023-02-04T06:16:54;2.95;;;0.40;;
32780;SDS011;19136;47.032;15.502;2023-02-04T06:19:19;1.88;;;0.50;;
32780;SDS011;19136;47.032;15.502;2023-02-04T06:21:45;1.25;;;0.57;;
32780;SDS011;19136;47.032;15.502;2023-02-04T06:24:11;4.03;;;0.63;;
32780;SDS011;19136;47.032;15.502;2023-02-04T06:26:36;0.73;;;0.30;;
32780;SDS011;19136;47.032;15.502;2023-02-04T06:29:02;1.63;;;0.90;;
32780;SDS011;19136;47.032;15.502;2023-02-04T06:31:28;2.42;;;1.00;;
32780;SDS011;19136;47.032;15.502;2023-02-04T06:33:53;1.20;;;0.60;;
32780;SDS011;19136;47.032;15.502;2023-02-04T06:36:19;0.80;;;0.30;;
32780;SDS011;19136;47.032;15.502;2023-02-04T06:38:44;0.28;;;0.20;;
32780;SDS011;19136;47.032;15.502;2023-02-04T06:41:10;0.40;;;0.20;;
32780;SDS011;19136;47.032;15.502;2023-02-04T06:43:35;0.20;;;0.20;;
32780;SDS011;19136;47.032;15.502;2023-02-04T06:46:01;0.68;;;0.38;;
32780;SDS011;19136;47.032;15.502;2023-02-04T06:48:26;0.80;;;0.47;;
32780;SDS011;19136;47.032;15.502;2023-02-04T06:50:52;0.73;;;0.30;;
32780;SDS011;19136;47.032;15.502;2023-02-04T06:53:17;1.05;;;0.30;;
32780;SDS011;19136;47.032;15.502;2023-02-04T06:55:43;1.20;;;0.35;;
32780;SDS011;19136;47.032;15.502;2023-02-04T06:58:08;0.30;;;0.30;;
32780;SDS011;19136;47.032;15.502;2023-02-04T07:00:34;0.30;;;0.20;;
32780;SDS011;19136;47.032;15.502;2023-02-04T07:02:59;0.68;;;0.30;;
32780;SDS011;19136;47.032;15.502;2023-02-04T07:05:25;0.82;;;0.30;;
32780;SDS011;19136;47.032;15.502;2023-02-04T07:07:50;0.40;;;0.30;;
32780;SDS011;19136;47.032;15.502;2023-02-04T07:10:16;0.20;;;0.15;;
32780;SDS011;19136;47.032;15.502;2023-02-04T07:12:42;1.27;;;0.30;;
32780;SDS011;19136;47.032;15.502;2023-02-04T07:15:08;0.13;;;0.10;;
32780;SDS011;19136;47.032;15.502;2023-02-04T07:17:34;0.20;;;0.20;;
32780;SDS011;19136;47.032;15.502;2023-02-04T07:19:59;0.85;;;0.30;;
32780;SDS011;19136;47.032;15.502;2023-02-04T07:22:25;0.40;;;0.20;;
32780;SDS011;19136;47.032;15.502;2023-02-04T07:24:51;0.30;;;0.30;;
32780;SDS011;19136;47.032;15.502;2023-02-04T07:27:16;0.65;;;0.43;;
32780;SDS011;19136;47.032;15.502;2023-02-04T07:29:42;0.30;;;0.30;;
32780;SDS011;19136;47.032;15.502;2023-02-04T07:32:07;0.50;;;0.30;;
32780;SDS011;19136;47.032;15.502;2023-02-04T07:34:34;1.10;;;0.30;;
32780;SDS011;19136;47.032;15.502;2023-02-04T07:37:00;1.77;;;0.50;;
32780;SDS011;19136;47.032;15.502;2023-02-04T07:39:28;0.70;;;0.40;;
32780;SDS011;19136;47.032;15.502;2023-02-04T07:41:54;0.68;;;0.30;;
32780;SDS011;19136;47.032;15.502;2023-02-04T07:44:19;1.77;;;0.65;;
32780;SDS011;19136;47.032;15.502;2023-02-04T07:46:45;2.33;;;0.75;;
32780;SDS011;19136;47.032;15.502;2023-02-04T07:49:10;2.85;;;0.85;;
32780;SDS011;19136;47.032;15.502;2023-02-04T07:51:36;1.42;;;0.50;;
32780;SDS011;19136;47.032;15.502;2023-02-04T07:54:01;1.00;;;0.50;;
32780;SDS011;19136;47.032;15.502;2023-02-04T07:56:27;0.80;;;0.40;;
32780;SDS011;19136;47.032;15.502;2023-02-04T07:58:52;1.08;;;0.55;;
32780;SDS011;19136;47.032;15.502;2023-02-04T08:01:18;1.17;;;0.45;;
32780;SDS011;19136;47.032;15.502;2023-02-04T08:03:43;0.30;;;0.30;;
32780;SDS011;19136;47.032;15.502;2023-02-04T08:06:09;0.55;;;0.38;;
32780;SDS011;19136;47.032;15.502;2023-02-04T08:08:34;0.40;;;0.30;;
32780;SDS011;19136;47.032;15.502;2023-02-04T08:11:00;1.27;;;0.43;;
32780;SDS011;19136;47.032;15.502;2023-02-04T08:13:25;6.07;;;0.90;;
32780;SDS011;19136;47.032;15.502;2023-02-04T08:15:51;2.42;;;0.43;;
32780;SDS011;19136;47.032;15.502;2023-02-04T08:18:17;0.93;;;0.50;;
32780;SDS011;19136;47.032;15.502;2023-02-04T08:20:45;4.63;;;1.20;;
32780;SDS011;19136;47.032;15.502;2023-02-04T08:23:11;2.42;;;0.80;;
32780;SDS011;19136;47.032;15.502;2023-02-04T08:25:36;3.58;;;0.90;;
32780;SDS011;19136;47.032;15.502;2023-02-04T08:28:02;2.58;;;1.23;;
32780;SDS011;19136;47.032;15.502;2023-02-04T08:30:28;4.75;;;1.25;;
32780;SDS011;19136;47.032;15.502;2023-02-04T08:32:53;1.05;;;0.55;;
32780;SDS011;19136;47.032;15.502;2023-02-04T08:35:19;1.40;;;0.60;;
32780;SDS011;19136;47.032;15.502;2023-02-04T08:37:44;2.72;;;0.70;;
32780;SDS011;19136;47.032;15.502;2023-02-04T08:40:10;5.25;;;0.90;;
32780;SDS011;19136;47.032;15.502;2023-02-04T08:42:36;2.28;;;0.93;;
32780;SDS011;19136;47.032;15.502;2023-02-04T08:45:01;3.08;;;0.90;;
32780;SDS011;19136;47.032;15.502;2023-02-04T08:47:28;1.73;;;0.90;;
32780;SDS011;19136;47.032;15.502;2023-02-04T08:49:53;3.05;;;0.63;;
32780;SDS011;19136;47.032;15.502;2023-02-04T08:52:19;0.82;;;0.40;;
32780;SDS011;19136;47.032;15.502;2023-02-04T08:54:44;0.95;;;0.30;;
32780;SDS011;19136;47.032;15.502;2023-02-04T08:57:10;3.83;;;0.50;;
32780;SDS011;19136;47.032;15.502;2023-02-04T08:59:35;0.88;;;0.50;;
32780;SDS011;19136;47.032;15.502;2023-02-04T09:02:01;0.90;;;0.30;;
32780;SDS011;19136;47.032;15.502;2023-02-04T09:04:29;0.38;;;0.30;;
32780;SDS011;19136;47.032;15.502;2023-02-04T09:06:55;3.42;;;0.40;;
32780;SDS011;19136;47.032;15.502;2023-02-04T09:09:20;4.88;;;0.50;;
32780;SDS011;19136;47.032;15.502;2023-02-04T09:11:46;2.17;;;0.50;;
32780;SDS011;19136;47.032;15.502;2023-02-04T09:14:11;0.50;;;0.40;;
32780;SDS011;19136;47.032;15.502;2023-02-04T09:16:37;1.48;;;0.43;;
32780;SDS011;19136;47.032;15.502;2023-02-04T09:19:03;0.55;;;0.30;;
32780;SDS011;19136;47.032;15.502;2023-02-04T09:21:30;1.35;;;0.50;;
32780;SDS011;19136;47.032;15.502;2023-02-04T09:23:56;0.57;;;0.38;;
32780;SDS011;19136;47.032;15.502;2023-02-04T09:26:22;0.95;;;0.30;;
32780;SDS011;19136;47.032;15.502;2023-02-04T09:28:47;0.85;;;0.40;;
32780;SDS011;19136;47.032;15.502;2023-02-04T09:31:14;0.50;;;0.30;;
32780;SDS011;19136;47.032;15.502;2023-02-04T09:33:40;8.75;;;0.60;;
32780;SDS011;19136;47.032;15.502;2023-02-04T09:36:06;1.05;;;0.30;;
32780;SDS011;19136;47.032;15.502;2023-02-04T09:38:32;0.35;;;0.20;;
32780;SDS011;19136;47.032;15.502;2023-02-04T09:41:01;1.48;;;0.30;;
32780;SDS011;19136;47.032;15.502;2023-02-04T09:43:29;1.67;;;0.40;;
32780;SDS011;19136;47.032;15.502;2023-02-04T09:45:57;0.57;;;0.35;;
32780;SDS011;19136;47.032;15.502;2023-02-04T09:48:23;0.75;;;0.30;;
32780;SDS011;19136;47.032;15.502;2023-02-04T09:50:49;1.27;;;0.40;;
32780;SDS011;19136;47.032;15.502;2023-02-04T09:53:16;4.63;;;0.55;;
32780;SDS011;19136;47.032;15.502;2023-02-04T09:55:46;0.70;;;0.40;;
32780;SDS011;19136;47.032;15.502;2023-02-04T09:58:13;0.40;;;0.30;;
32780;SDS011;19136;47.032;15.502;2023-02-04T10:00:41;1.20;;;0.45;;
32780;SDS011;19136;47.032;15.502;2023-02-04T10:03:15;1.25;;;0.30;;
32780;SDS011;19136;47.032;15.502;2023-02-04T10:05:43;0.22;;;0.20;;
32780;SDS011;19136;47.032;15.502;2023-02-04T10:08:13;1.58;;;0.40;;
32780;SDS011;19136;47.032;15.502;2023-02-04T10:10:40;1.95;;;0.25;;
32780;SDS011;19136;47.032;15.502;2023-02-04T10:13:07;2.35;;;0.45;;
32780;SDS011;19136;47.032;15.502;2023-02-04T10:15:46;2.15;;;0.20;;
32780;SDS011;19136;47.032;15.502;2023-02-04T10:18:14;2.10;;;0.22;;
32780;SDS011;19136;47.032;15.502;2023-02-04T10:20:44;0.85;;;0.68;;
32780;SDS011;19136;47.032;15.502;2023-02-04T10:23:09;0.90;;;0.30;;
32780;SDS011;19136;47.032;15.502;2023-02-04T10:25:35;4.03;;;0.30;;
32780;SDS011;19136;47.032;15.502;2023-02-04T10:28:01;0.82;;;0.25;;
32780;SDS011;19136;47.032;15.502;2023-02-04T10:30:30;2.38;;;0.32;;
32780;SDS011;19136;47.032;15.502;2023-02-04T10:33:21;0.65;;;0.43;;
32780;SDS011;19136;47.032;15.502;2023-02-04T10:35:49;2.45;;;0.70;;
32780;SDS011;19136;47.032;15.502;2023-02-04T10:38:17;0.95;;;0.40;;
32780;SDS011;19136;47.032;15.502;2023-02-04T10:40:43;0.60;;;0.38;;
32780;SDS011;19136;47.032;15.502;2023-02-04T10:43:14;0.77;;;0.38;;
32780;SDS011;19136;47.032;15.502;2023-02-04T10:45:46;0.95;;;0.40;;
32780;SDS011;19136;47.032;15.502;2023-02-04T10:48:22;0.73;;;0.30;;
32780;SDS011;19136;47.032;15.502;2023-02-04T10:50:48;2.28;;;0.30;;
32780;SDS011;19136;47.032;15.502;2023-02-04T10:53:14;2.03;;;0.30;;
32780;SDS011;19136;47.032;15.502;2023-02-04T10:56:00;1.08;;;0.40;;
32780;SDS011;19136;47.032;15.502;2023-02-04T10:58:27;0.60;;;0.40;;
32780;SDS011;19136;47.032;15.502;2023-02-04T11:00:54;0.93;;;0.35;;
32780;SDS011;19136;47.032;15.502;2023-02-04T11:03:23;0.28;;;0.25;;
32780;SDS011;19136;47.032;15.502;2023-02-04T11:05:50;0.60;;;0.30;;
32780;SDS011;19136;47.032;15.502;2023-02-04T11:08:19;0.43;;;0.30;;
32780;SDS011;19136;47.032;15.502;2023-02-04T11:10:48;3.17;;;0.50;;
32780;SDS011;19136;47.032;15.502;2023-02-04T11:14:20;0.93;;;0.52;;
32780;SDS011;19136;47.032;15.502;2023-02-04T11:16:26;0.70;;;0.50;;
32780;SDS011;19136;47.032;15.502;2023-02-04T11:19:00;1.67;;;0.50;;
32780;SDS011;19136;47.032;15.502;2023-02-04T11:24:41;1.05;;;0.52;;
32780;SDS011;19136;47.032;15.502;2023-02-04T11:26:49;0.65;;;0.45;;
32780;SDS011;19136;47.032;15.502;2023-02-04T11:29:24;1.65;;;0.50;;
32780;SDS011;19136;47.032;15.502;2023-02-04T11:32:11;1.85;;;0.63;;
32780;SDS011;19136;47.032;15.502;2023-02-04T11:35:04;3.13;;;0.60;;
32780;SDS011;19136;47.032;15.502;2023-02-04T11:37:37;0.75;;;0.43;;
32780;SDS011;19136;47.032;15.502;2023-02-04T11:40:15;0.80;;;0.50;;
32780;SDS011;19136;47.032;15.502;2023-02-04T11:42:46;1.30;;;0.50;;
32780;SDS011;19136;47.032;15.502;2023-02-04T11:45:17;0.65;;;0.50;;
32780;SDS011;19136;47.032;15.502;2023-02-04T11:50:21;2.55;;;0.40;;
32780;SDS011;19136;47.032;15.502;2023-02-04T11:52:53;1.20;;;0.45;;
32780;SDS011;19136;47.032;15.502;2023-02-04T11:55:19;2.50;;;0.70;;
32780;SDS011;19136;47.032;15.502;2023-02-04T11:57:44;4.85;;;0.50;;
32780;SDS011;19136;47.032;15.502;2023-02-04T12:00:13;0.75;;;0.45;;
32780;SDS011;19136;47.032;15.502;2023-02-04T12:02:45;0.60;;;0.50;;
32780;SDS011;19136;47.032;15.502;2023-02-04T12:05:17;1.15;;;0.47;;
32780;SDS011;19136;47.032;15.502;2023-02-04T12:07:47;0.82;;;0.50;;
32780;SDS011;19136;47.032;15.502;2023-02-04T12:10:14;6.75;;;0.43;;
32780;SDS011;19136;47.032;15.502;2023-02-04T12:12:50;1.48;;;0.40;;
32780;SDS011;19136;47.032;15.502;2023-02-04T12:15:34;5.47;;;0.70;;
32780;SDS011;19136;47.032;15.502;2023-02-04T12:18:07;1.17;;;0.60;;
32780;SDS011;19136;47.032;15.502;2023-02-04T12:20:34;0.57;;;0.40;;
32780;SDS011;19136;47.032;15.502;2023-02-04T12:23:01;2.15;;;0.57;;
32780;SDS011;19136;47.032;15.502;2023-02-04T12:25:27;2.65;;;0.38;;
32780;SDS011;19136;47.032;15.502;2023-02-04T12:27:53;1.33;;;0.50;;
32780;SDS011;19136;47.032;15.502;2023-02-04T12:30:20;3.33;;;0.50;;
32780;SDS011;19136;47.032;15.502;2023-02-04T12:32:46;1.45;;;0.57;;
32780;SDS011;19136;47.032;15.502;2023-02-04T12:35:12;2.28;;;0.73;;
32780;SDS011;19136;47.032;15.502;2023-02-04T12:37:38;0.65;;;0.50;;
32780;SDS011;19136;47.032;15.502;2023-02-04T12:40:03;2.17;;;0.70;;
32780;SDS011;19136;47.032;15.502;2023-02-04T12:42:29;1.02;;;0.30;;
32780;SDS011;19136;47.032;15.502;2023-02-04T12:44:55;1.50;;;0.50;;
32780;SDS011;19136;47.032;15.502;2023-02-04T12:47:21;1.48;;;0.40;;
32780;SDS011;19136;47.032;15.502;2023-02-04T12:49:47;0.68;;;0.30;;
32780;SDS011;19136;47.032;15.502;2023-02-04T12:52:12;0.55;;;0.50;;
32780;SDS011;19136;47.032;15.502;2023-02-04T12:54:38;2.50;;;0.40;;
32780;SDS011;19136;47.032;15.502;2023-02-04T12:57:03;1.17;;;0.55;;
32780;SDS011;19136;47.032;15.502;2023-02-04T12:59:29;0.60;;;0.52;;
32780;SDS011;19136;47.032;15.502;2023-02-04T13:01:55;1.30;;;0.40;;
32780;SDS011;19136;47.032;15.502;2023-02-04T13:04:22;0.98;;;0.50;;
32780;SDS011;19136;47.032;15.502;2023-02-04T13:06:47;1.05;;;0.50;;
32780;SDS011;19136;47.032;15.502;2023-02-04T13:09:13;2.65;;;0.40;;
32780;SDS011;19136;47.032;15.502;2023-02-04T13:11:38;0.60;;;0.40;;
32780;SDS011;19136;47.032;15.502;2023-02-04T13:14:04;0.40;;;0.40;;
32780;SDS011;19136;47.032;15.502;2023-02-04T13:16:30;1.00;;;0.57;;
32780;SDS011;19136;47.032;15.502;2023-02-04T13:18:55;1.50;;;0.40;;
32780;SDS011;19136;47.032;15.502;2023-02-04T13:21:21;5.50;;;0.40;;
32780;SDS011;19136;47.032;15.502;2023-02-04T13:23:46;0.90;;;0.55;;
32780;SDS011;19136;47.032;15.502;2023-02-04T13:26:12;1.10;;;0.70;;
32780;SDS011;19136;47.032;15.502;2023-02-04T13:28:38;0.80;;;0.40;;
32780;SDS011;19136;47.032;15.502;2023-02-04T13:31:03;1.63;;;0.60;;
32780;SDS011;19136;47.032;15.502;2023-02-04T13:33:29;1.40;;;0.50;;
32780;SDS011;19136;47.032;15.502;2023-02-04T13:35:55;0.63;;;0.50;;
32780;SDS011;19136;47.032;15.502;2023-02-04T13:38:21;3.55;;;0.50;;
32780;SDS011;19136;47.032;15.502;2023-02-04T13:40:47;1.02;;;0.47;;
32780;SDS011;19136;47.032;15.502;2023-02-04T13:43:13;3.15;;;0.65;;
32780;SDS011;19136;47.032;15.502;2023-02-04T13:45:38;1.17;;;0.50;;
32780;SDS011;19136;47.032;15.502;2023-02-04T13:48:04;0.75;;;0.35;;
32780;SDS011;19136;47.032;15.502;2023-02-04T13:50:30;0.80;;;0.50;;
32780;SDS011;19136;47.032;15.502;2023-02-04T13:52:56;1.13;;;0.52;;
32780;SDS011;19136;47.032;15.502;2023-02-04T13:55:21;2.15;;;0.75;;
32780;SDS011;19136;47.032;15.502;2023-02-04T13:57:47;1.85;;;0.85;;
32780;SDS011;19136;47.032;15.502;2023-02-04T14:00:12;1.80;;;0.80;;
32780;SDS011;19136;47.032;15.502;2023-02-04T14:02:38;1.80;;;0.70;;
32780;SDS011;19136;47.032;15.502;2023-02-04T14:05:04;1.55;;;0.90;;
32780;SDS011;19136;47.032;15.502;2023-02-04T14:07:30;0.70;;;0.45;;
32780;SDS011;19136;47.032;15.502;2023-02-04T14:09:57;2.63;;;0.77;;
32780;SDS011;19136;47.032;15.502;2023-02-04T14:12:23;1.70;;;0.70;;
32780;SDS011;19136;47.032;15.502;2023-02-04T14:14:48;1.90;;;0.70;;
32780;SDS011;19136;47.032;15.502;2023-02-04T14:17:14;1.60;;;0.80;;
32780;SDS011;19136;47.032;15.502;2023-02-04T14:19:39;3.88;;;1.27;;
32780;SDS011;19136;47.032;15.502;2023-02-04T14:22:05;3.22;;;1.17;;
32780;SDS011;19136;47.032;15.502;2023-02-04T14:24:31;2.00;;;0.77;;
32780;SDS011;19136;47.032;15.502;2023-02-04T14:26:57;1.90;;;0.93;;
32780;SDS011;19136;47.032;15.502;2023-02-04T14:29:23;1.30;;;0.70;;
32780;SDS011;19136;47.032;15.502;2023-02-04T14:31:48;3.65;;;1.23;;
32780;SDS011;19136;47.032;15.502;2023-02-04T14:34:14;3.58;;;1.20;;
32780;SDS011;19136;47.032;15.502;2023-02-04T14:36:40;2.80;;;1.30;;